OMAL/AAN METAR and TAF weather

Enter ICAO airport designator
Station Type Date Time Source
OMAL METAR 2020/07/15 01:00 UTC NOAA

OMAL 150100Z 12006KT CAVOK 33/22 Q1000 NOSIG


Station Type Date Time Source
OMAL Decoded METAR 2020/07/15 01:00 UTC NOAA

Al Ain International Airport, United Arab Emirates (OMAL) 24-16N 055-36E 262M
Jul 14, 2020 - 09:00 PM EDT / 2020.07.15 0100 UTC
Wind: from the ESE (120 degrees) at 7 MPH (6 KT):0
Visibility: greater than 7 mile(s):0
Temperature: 91 F (33 C)
Heat index: 97.5 F (36.4 C):1
Dew Point: 71 F (22 C)
Relative Humidity: 52%
Pressure (altimeter): 29.53 in. Hg (1000 hPa)
ob: OMAL 150100Z 12006KT CAVOK 33/22 Q1000 NOSIG
cycle: 1

Station Type Date Time Source
OMAL TAF 2020/07/14 18:01 UTC NOAA

TAF OMAL 141700Z 1418/1600 01008KT 8000 NSC
BECMG 1421/1423 16010KT
BECMG 1508/1510 30012KT
BECMG 1518/1520 05005KT

Example: see airport list